Time;durP1;ratioP1;P1;durP2;ratioP2;P2;SDS_P1;SDS_P2;PMS_P1;PMS_P2;Temp;Humidity;BMP_temperature;BMP_pressure;BME280_temperature;BME280_humidity;BME280_pressure;Samples;Min_cycle;Max_cycle;Signal;HPM_P1;HPM_P2
2021/12/08 00:02:03;;;;;;;5.87;2.63;;;;;;;2.12;77.48;99398.34;5042031;28;20308;-73
2021/12/08 00:04:30;;;;;;;4.60;3.00;;;;;;;2.12;77.02;99388.69;5041604;28;20576;-74
2021/12/08 00:06:56;;;;;;;4.50;2.67;;;;;;;2.11;76.92;99378.25;5036484;28;20570;-74
2021/12/08 00:09:46;;;;;;;3.67;2.50;;;;;;;2.09;77.43;99371.31;5041322;28;20586;-74
2021/12/08 00:14:59;;;;;;;5.47;3.00;;;;;;;2.10;77.22;99372.16;5039344;28;20275;-73
2021/12/08 00:17:25;;;;;;;5.33;2.90;;;;;;;2.10;77.05;99372.16;5039259;28;20576;-74
2021/12/08 00:19:52;;;;;;;3.63;2.53;;;;;;;2.09;77.61;99360.81;5041485;28;20201;-74
2021/12/08 00:22:19;;;;;;;4.57;2.80;;;;;;;2.08;77.14;99355.63;5037584;28;20217;-73
2021/12/08 00:24:46;;;;;;;6.57;2.90;;;;;;;2.06;77.63;99358.31;5042076;28;20689;-74
2021/12/08 00:27:13;;;;;;;5.23;2.97;;;;;;;2.06;77.38;99354.84;5037673;28;20206;-74
2021/12/08 00:29:39;;;;;;;3.97;3.03;;;;;;;2.04;77.74;99359.31;5037672;28;20198;-74
2021/12/08 00:32:09;;;;;;;5.40;3.30;;;;;;;2.02;77.75;99354.13;5033816;28;20234;-74
2021/12/08 00:34:36;;;;;;;6.97;3.43;;;;;;;2.02;77.66;99348.88;5037023;28;20567;-74
2021/12/08 00:37:03;;;;;;;8.50;3.50;;;;;;;2.05;77.57;99363.66;5032160;28;20227;-73
2021/12/08 00:39:29;;;;;;;4.17;3.20;;;;;;;2.01;77.63;99357.69;5040796;28;20205;-74
2021/12/08 00:41:56;;;;;;;5.60;3.10;;;;;;;2.01;77.83;99351.59;5040900;28;20239;-74
2021/12/08 00:44:22;;;;;;;5.67;3.33;;;;;;;2.02;77.42;99359.38;5038455;28;20682;-75
2021/12/08 00:46:49;;;;;;;6.07;3.83;;;;;;;2.03;77.93;99358.47;5038744;28;20210;-74
2021/12/08 00:49:17;;;;;;;4.90;3.20;;;;;;;2.01;77.71;99357.69;5038872;28;21105;-73
2021/12/08 00:51:43;;;;;;;5.07;3.57;;;;;;;2.01;77.86;99355.06;5039147;28;20356;-74
2021/12/08 00:54:10;;;;;;;6.13;3.33;;;;;;;2.01;77.22;99347.19;5033164;28;20236;-74
2021/12/08 00:56:37;;;;;;;4.33;3.33;;;;;;;2.03;77.74;99336.59;5034866;28;20223;-73
2021/12/08 00:59:04;;;;;;;7.57;4.13;;;;;;;2.03;77.76;99326.94;5038133;28;20224;-73
2021/12/08 01:01:31;;;;;;;5.73;3.70;;;;;;;2.02;77.14;99327.88;5032633;28;20241;-74
2021/12/08 01:03:58;;;;;;;5.00;3.63;;;;;;;2.03;77.33;99326.09;5037857;28;20202;-74
2021/12/08 01:06:26;;;;;;;6.40;3.50;;;;;;;2.02;77.33;99322.63;5040938;28;20221;-74
2021/12/08 01:08:53;;;;;;;6.60;3.80;;;;;;;2.01;77.38;99322.69;5035995;28;20209;-75
2021/12/08 01:11:20;;;;;;;7.47;3.77;;;;;;;2.01;77.65;99320.06;5042913;28;20231;-74
2021/12/08 01:13:48;;;;;;;6.57;4.23;;;;;;;1.99;77.97;99307.03;5041525;28;20221;-74
2021/12/08 01:16:16;;;;;;;6.53;4.47;;;;;;;1.98;78.00;99307.94;5040893;28;20676;-74
2021/12/08 01:18:43;;;;;;;6.60;4.50;;;;;;;1.97;77.53;99301.00;5044944;28;20682;-74
2021/12/08 01:21:12;;;;;;;7.43;4.57;;;;;;;1.97;78.19;99290.50;5039415;28;20222;-74
2021/12/08 01:23:41;;;;;;;8.83;4.50;;;;;;;1.95;77.76;99289.75;5038879;28;20225;-74
2021/12/08 01:26:09;;;;;;;6.63;4.07;;;;;;;1.95;77.74;99291.53;5044664;28;20219;-75
2021/12/08 01:28:35;;;;;;;7.63;5.60;;;;;;;1.95;77.84;99300.25;5044118;28;20213;-75
2021/12/08 01:31:04;;;;;;;8.07;4.57;;;;;;;1.94;78.06;99289.81;5046794;28;20230;-75
2021/12/08 01:33:33;;;;;;;9.10;4.43;;;;;;;1.93;77.94;99275.84;5048689;28;20255;-75
2021/12/08 01:36:01;;;;;;;5.13;2.20;;;;;;;1.93;78.68;99286.34;5042801;28;20232;-75
2021/12/08 01:38:28;;;;;;;3.07;1.60;;;;;;;1.98;78.56;99265.09;5040956;28;20205;-75
2021/12/08 01:40:57;;;;;;;3.07;1.33;;;;;;;2.04;77.67;99242.00;5048277;28;20237;-74
2021/12/08 01:43:26;;;;;;;3.67;1.50;;;;;;;2.11;78.33;99236.44;5042447;28;20206;-75
2021/12/08 01:46:00;;;;;;;1.93;1.40;;;;;;;2.18;77.21;99230.78;5043185;28;20297;-75
2021/12/08 01:48:30;;;;;;;6.47;2.00;;;;;;;2.27;77.43;99222.44;5048026;28;20202;-74
2021/12/08 01:50:59;;;;;;;2.63;1.33;;;;;;;2.34;75.98;99218.53;5039321;28;20229;-75
2021/12/08 01:53:25;;;;;;;3.50;1.73;;;;;;;2.42;76.07;99202.38;5028381;28;20245;-75
2021/12/08 01:55:53;;;;;;;2.90;1.53;;;;;;;2.48;75.72;99204.69;5048672;28;20202;-75
2021/12/08 01:58:21;;;;;;;3.23;1.60;;;;;;;2.53;74.78;99207.06;5045578;28;20200;-75
2021/12/08 02:00:53;;;;;;;3.70;1.03;;;;;;;2.58;74.28;99195.38;5035353;28;20607;-74
2021/12/08 02:03:21;;;;;;;2.90;1.70;;;;;;;2.62;74.29;99209.22;5049679;28;20198;-75
2021/12/08 02:05:48;;;;;;;2.63;1.47;;;;;;;2.65;74.27;99196.75;5048825;28;20205;-75
2021/12/08 02:08:15;;;;;;;7.30;1.60;;;;;;;2.69;73.76;99206.16;5042789;28;20213;-75
2021/12/08 02:10:43;;;;;;;3.70;1.50;;;;;;;2.72;73.39;99195.47;5044924;28;20222;-75
2021/12/08 02:13:10;;;;;;;2.73;1.63;;;;;;;2.75;73.12;99197.09;5051956;28;20237;-75
2021/12/08 02:15:39;;;;;;;5.20;1.80;;;;;;;2.78;72.37;99203.03;5051863;28;20660;-75
2021/12/08 02:18:07;;;;;;;4.20;1.67;;;;;;;2.82;72.72;99198.47;5049902;28;20730;-75
2021/12/08 02:20:35;;;;;;;3.23;1.70;;;;;;;2.83;72.72;99186.16;5040607;28;20226;-75
2021/12/08 02:23:04;;;;;;;5.00;1.80;;;;;;;2.83;72.01;99189.66;5038696;28;20198;-73
2021/12/08 02:25:31;;;;;;;4.97;1.70;;;;;;;2.85;72.27;99200.09;5038342;28;20222;-75
2021/12/08 02:28:00;;;;;;;3.10;1.40;;;;;;;2.87;72.58;99206.06;5046852;28;20213;-75
2021/12/08 02:30:33;;;;;;;3.93;1.70;;;;;;;2.86;72.05;99202.63;5052947;28;20233;-75
2021/12/08 02:47:10;;;;;;;3.03;2.07;;;;;;;2.79;72.33;99180.22;4990499;28;20230;-75
2021/12/08 02:49:38;;;;;;;2.93;1.70;;;;;;;2.77;72.80;99177.69;5024711;28;20300;-75
2021/12/08 02:52:07;;;;;;;4.17;1.87;;;;;;;2.77;73.17;99175.03;5043009;28;20453;-75
2021/12/08 02:54:38;;;;;;;6.73;2.27;;;;;;;2.76;73.04;99162.84;5048632;28;20221;-75
2021/12/08 02:57:05;;;;;;;5.60;2.33;;;;;;;2.77;73.08;99142.66;5041574;28;20233;-75
2021/12/08 02:59:33;;;;;;;4.30;1.80;;;;;;;2.77;73.39;99148.75;5046632;28;20198;-74
2021/12/08 03:01:59;;;;;;;3.67;2.17;;;;;;;2.77;73.72;99140.03;5049547;28;20221;-75
2021/12/08 03:04:26;;;;;;;4.60;2.10;;;;;;;2.75;73.64;99137.47;5047599;28;20205;-75
2021/12/08 03:06:53;;;;;;;5.73;2.00;;;;;;;2.74;73.53;99127.88;5047985;28;20679;-75
2021/12/08 03:09:19;;;;;;;2.43;2.00;;;;;;;2.76;74.07;99120.78;5049713;28;20202;-75
2021/12/08 03:11:49;;;;;;;3.07;1.47;;;;;;;2.75;74.48;99123.47;5046970;28;20222;-75
2021/12/08 03:14:17;;;;;;;5.30;2.33;;;;;;;2.74;74.19;99114.75;5037628;28;20222;-75
2021/12/08 03:16:48;;;;;;;2.50;1.53;;;;;;;2.73;73.97;99113.06;5036065;28;20293;-75
2021/12/08 03:19:15;;;;;;;1.97;1.70;;;;;;;2.72;74.40;99113.97;5039562;28;20209;-75
2021/12/08 03:21:42;;;;;;;3.10;1.90;;;;;;;2.73;74.33;99125.34;5049226;28;20607;-75
2021/12/08 03:24:20;;;;;;;3.97;1.87;;;;;;;2.73;74.06;99120.94;5050634;28;20198;-76
2021/12/08 03:26:53;;;;;;;3.93;1.90;;;;;;;2.74;74.12;99120.00;5039653;28;20264;-75
2021/12/08 03:29:27;;;;;;;1.80;1.60;;;;;;;2.76;74.35;99130.44;5048093;28;20251;-75
2021/12/08 03:32:03;;;;;;;3.63;1.73;;;;;;;2.77;74.27;99117.22;5049874;28;20272;-73
2021/12/08 03:34:31;;;;;;;2.27;2.07;;;;;;;2.78;74.17;99120.69;5037969;28;20235;-75
2021/12/08 03:36:58;;;;;;;2.23;1.50;;;;;;;2.78;74.41;99124.16;5045317;28;20224;-74
2021/12/08 03:39:24;;;;;;;3.17;1.87;;;;;;;2.81;74.44;99127.56;5039761;28;20202;-75
2021/12/08 03:41:51;;;;;;;4.87;1.50;;;;;;;2.81;73.41;99131.03;5042371;28;20245;-75
2021/12/08 03:44:17;;;;;;;2.93;1.60;;;;;;;2.84;74.14;99127.41;5039975;28;20201;-75
2021/12/08 03:46:45;;;;;;;4.07;1.77;;;;;;;2.85;73.30;99135.19;5043687;28;20213;-75
2021/12/08 03:49:14;;;;;;;2.40;1.60;;;;;;;2.85;73.55;99124.69;5046331;28;20208;-75
2021/12/08 03:51:42;;;;;;;1.63;1.33;;;;;;;2.86;73.51;99123.75;5042583;28;20228;-75
2021/12/08 03:54:09;;;;;;;2.73;1.07;;;;;;;2.89;72.92;99120.06;5050788;28;20229;-75
2021/12/08 03:56:36;;;;;;;3.77;1.50;;;;;;;2.92;73.32;99125.16;5034423;28;20213;-75
2021/12/08 03:59:04;;;;;;;2.57;1.33;;;;;;;2.94;72.94;99124.16;5044896;28;20682;-75
2021/12/08 04:01:31;;;;;;;4.53;1.67;;;;;;;2.94;72.34;99128.56;5050070;28;20842;-75
2021/12/08 04:04:03;;;;;;;3.67;1.40;;;;;;;2.93;72.03;99119.81;5043766;28;20209;-75
2021/12/08 04:06:33;;;;;;;5.63;2.10;;;;;;;2.95;72.45;99136.38;5037439;28;20296;-75
2021/12/08 04:09:05;;;;;;;2.03;1.37;;;;;;;2.95;72.34;99144.25;5038924;28;20213;-74
2021/12/08 04:11:31;;;;;;;5.60;1.77;;;;;;;2.97;71.98;99145.03;5049492;28;20249;-75
2021/12/08 04:14:02;;;;;;;3.20;1.40;;;;;;;2.98;72.52;99140.59;5046539;28;20710;-73
2021/12/08 04:16:31;;;;;;;1.93;1.30;;;;;;;2.96;72.59;99145.09;5041521;28;20547;-75
2021/12/08 04:19:00;;;;;;;3.67;1.60;;;;;;;2.94;72.34;99146.97;5044472;28;20201;-75
2021/12/08 04:21:27;;;;;;;4.77;1.83;;;;;;;2.94;72.38;99144.34;5033638;28;20249;-75
2021/12/08 04:23:54;;;;;;;3.63;1.80;;;;;;;2.92;72.89;99148.84;5040736;28;20202;-75
2021/12/08 04:26:26;;;;;;;4.20;1.83;;;;;;;2.90;73.08;99146.28;5035950;28;20225;-74
2021/12/08 04:28:54;;;;;;;2.47;1.30;;;;;;;2.92;73.78;99160.19;5049819;28;20210;-75
2021/12/08 04:31:23;;;;;;;3.63;2.07;;;;;;;2.87;73.37;99153.50;5071397;22;20232;-71
2021/12/08 04:33:53;;;;;;;3.20;1.83;;;;;;;2.84;74.17;99133.50;5049756;28;20714;-71
2021/12/08 04:36:23;;;;;;;4.80;2.20;;;;;;;2.82;74.37;99129.25;5063435;28;20670;-71
2021/12/08 04:38:54;;;;;;;8.40;2.40;;;;;;;2.77;74.37;99142.66;5065841;28;20216;-70
2021/12/08 04:41:28;;;;;;;2.13;1.90;;;;;;;2.72;75.12;99155.19;5060088;28;20307;-70
2021/12/08 04:44:03;;;;;;;3.83;2.20;;;;;;;2.66;75.51;99147.66;5063092;28;20200;-69
2021/12/08 04:46:50;;;;;;;3.60;1.90;;;;;;;2.63;75.15;99150.47;5056530;28;20685;-71
2021/12/08 04:49:34;;;;;;;3.73;2.13;;;;;;;2.63;75.54;99150.47;5058090;28;20224;-71
2021/12/08 04:52:08;;;;;;;3.37;2.00;;;;;;;2.61;76.49;99147.06;5059450;28;20231;-70
2021/12/08 05:00:45;;;;;;;3.10;1.57;;;;;;;2.53;76.82;99144.00;5069100;28;20337;-71
2021/12/08 05:03:41;;;;;;;4.00;2.00;;;;;;;2.51;76.57;99145.88;5066471;28;20208;-70
2021/12/08 05:06:21;;;;;;;2.53;1.90;;;;;;;2.50;77.46;99159.94;5056385;28;20760;-70
2021/12/08 05:08:52;;;;;;;2.50;1.93;;;;;;;2.48;77.20;99157.41;5059236;28;20734;-71
2021/12/08 05:11:21;;;;;;;3.90;1.83;;;;;;;2.49;77.18;99163.50;5054511;28;20217;-70
2021/12/08 05:13:51;;;;;;;3.77;2.50;;;;;;;2.46;77.83;99159.25;5061254;28;20228;-71
2021/12/08 05:16:19;;;;;;;4.53;1.87;;;;;;;2.45;77.67;99157.56;5061056;28;20197;-70
2021/12/08 05:18:49;;;;;;;8.70;2.57;;;;;;;2.41;77.89;99162.13;5063958;28;20209;-70
2021/12/08 05:21:19;;;;;;;3.73;2.00;;;;;;;2.44;77.93;99163.75;5063794;28;20229;-69
2021/12/08 05:23:51;;;;;;;4.20;2.00;;;;;;;2.42;77.80;99171.72;5064519;28;20207;-71
2021/12/08 05:26:24;;;;;;;2.37;1.70;;;;;;;2.42;78.60;99181.38;5060818;28;20380;-70
2021/12/08 05:28:51;;;;;;;2.77;1.63;;;;;;;2.45;78.09;99175.94;5062154;28;20617;-71
2021/12/08 05:31:26;;;;;;;5.60;3.00;;;;;;;2.46;78.05;99177.66;5057813;28;20605;-70
2021/12/08 05:33:54;;;;;;;4.03;1.90;;;;;;;2.46;78.02;99168.91;5064002;28;20232;-70
2021/12/08 05:36:21;;;;;;;4.20;2.37;;;;;;;2.43;78.80;99165.53;5058848;28;20209;-70
2021/12/08 05:38:50;;;;;;;3.90;2.10;;;;;;;2.41;78.77;99170.00;5060545;28;20204;-70
2021/12/08 05:41:20;;;;;;;3.30;1.90;;;;;;;2.44;79.09;99166.38;5067719;28;20724;-71
2021/12/08 05:43:49;;;;;;;3.30;2.10;;;;;;;2.43;78.05;99155.00;5061564;28;20208;-70
2021/12/08 05:46:18;;;;;;;4.73;2.20;;;;;;;2.44;78.98;99150.59;5057189;28;20213;-70
2021/12/08 05:48:48;;;;;;;2.77;1.83;;;;;;;2.44;79.10;99161.13;5057023;28;20209;-70
2021/12/08 05:51:18;;;;;;;5.53;2.13;;;;;;;2.43;78.40;99155.00;5062555;28;20225;-70
2021/12/08 05:53:47;;;;;;;6.10;2.40;;;;;;;2.42;78.71;99161.19;5062271;28;20233;-70
2021/12/08 05:56:16;;;;;;;3.83;2.27;;;;;;;2.43;78.72;99152.38;5055310;28;20218;-70
2021/12/08 05:58:44;;;;;;;3.37;2.00;;;;;;;2.43;78.77;99148.91;5057206;28;20206;-69
2021/12/08 06:01:17;;;;;;;4.43;2.87;;;;;;;2.42;78.63;99165.59;5059177;28;20218;-70
2021/12/08 06:03:46;;;;;;;5.27;2.23;;;;;;;2.44;78.96;99161.97;5059632;28;20207;-69
2021/12/08 06:06:13;;;;;;;4.07;2.50;;;;;;;2.44;78.79;99161.97;5060002;28;20686;-69
2021/12/08 06:08:40;;;;;;;3.27;2.13;;;;;;;2.44;79.12;99145.34;5058628;28;20295;-70
2021/12/08 06:11:09;;;;;;;3.93;2.37;;;;;;;2.44;78.79;99145.34;5059431;28;20225;-71
2021/12/08 06:13:39;;;;;;;3.97;2.23;;;;;;;2.46;78.32;99135.59;5058872;28;20205;-69
2021/12/08 06:16:07;;;;;;;3.93;2.20;;;;;;;2.47;78.71;99133.81;5063274;28;20213;-70
2021/12/08 06:18:38;;;;;;;6.33;2.73;;;;;;;2.51;78.97;99141.44;5063366;28;20208;-70
2021/12/08 06:21:08;;;;;;;4.03;2.40;;;;;;;2.51;78.69;99130.13;5059883;28;20229;-70
2021/12/08 06:23:36;;;;;;;3.70;2.40;;;;;;;2.50;78.80;99117.91;5064120;28;20205;-69
2021/12/08 06:26:05;;;;;;;4.23;2.13;;;;;;;2.52;78.88;99118.63;5058651;28;20203;-71
2021/12/08 06:28:32;;;;;;;4.37;1.57;;;;;;;2.55;78.45;99126.34;5062506;28;20501;-70
2021/12/08 06:31:01;;;;;;;4.13;2.30;;;;;;;2.57;78.81;99114.84;5060112;28;20953;-70
2021/12/08 06:33:27;;;;;;;3.13;2.13;;;;;;;2.56;78.45;99115.75;5065447;28;20693;-71
2021/12/08 06:36:07;;;;;;;3.53;2.13;;;;;;;2.57;78.14;99108.72;5066612;28;20256;-70
2021/12/08 06:38:34;;;;;;;3.23;2.27;;;;;;;2.58;78.57;99110.44;5065635;28;20674;-70
2021/12/08 06:41:04;;;;;;;4.33;3.33;;;;;;;2.60;78.19;99112.03;5057735;28;20229;-70
2021/12/08 06:43:37;;;;;;;5.00;2.17;;;;;;;2.60;78.02;99119.94;5070361;28;20216;-71
2021/12/08 06:46:05;;;;;;;3.57;2.60;;;;;;;2.62;78.26;99123.31;5057585;28;20213;-70
2021/12/08 06:48:41;;;;;;;2.57;2.30;;;;;;;2.64;77.80;99129.34;5062626;28;20205;-70
2021/12/08 06:51:14;;;;;;;4.77;2.10;;;;;;;2.65;77.75;99138.09;5050823;28;20655;-70
2021/12/08 06:53:43;;;;;;;4.80;2.60;;;;;;;2.65;78.51;99146.81;5062350;28;20262;-71
2021/12/08 06:56:13;;;;;;;5.37;2.77;;;;;;;2.62;77.70;99139.09;5056277;28;20210;-71
2021/12/08 06:58:43;;;;;;;5.83;2.37;;;;;;;2.65;78.46;99149.44;5052144;28;20581;-70
2021/12/08 07:01:36;;;;;;;4.17;2.33;;;;;;;2.68;77.93;99151.06;5062933;28;20228;-70
2021/12/08 07:04:14;;;;;;;4.00;2.33;;;;;;;2.67;78.42;99163.34;5053368;28;20686;-71
2021/12/08 07:06:56;;;;;;;2.60;2.20;;;;;;;2.68;78.68;99165.06;5054979;28;20213;-70
2021/12/08 07:09:26;;;;;;;4.17;2.67;;;;;;;2.71;77.75;99159.59;5053649;28;20236;-70
2021/12/08 07:11:55;;;;;;;3.43;3.13;;;;;;;2.70;77.85;99170.19;5051164;28;20226;-70
2021/12/08 07:14:24;;;;;;;6.17;2.87;;;;;;;2.69;78.63;99161.47;5051582;28;20256;-70
2021/12/08 07:16:55;;;;;;;6.93;2.73;;;;;;;2.72;78.41;99170.97;5065283;28;20208;-70
2021/12/08 07:19:32;;;;;;;4.33;2.80;;;;;;;2.72;78.85;99178.84;5066088;28;20263;-70
2021/12/08 07:22:04;;;;;;;5.47;3.10;;;;;;;2.73;78.30;99183.19;5063184;28;20236;-71
2021/12/08 07:24:33;;;;;;;4.37;2.87;;;;;;;2.75;78.46;99197.09;5053012;28;20695;-70
2021/12/08 07:27:05;;;;;;;4.43;3.00;;;;;;;2.75;78.66;99197.94;5062699;28;20212;-70
2021/12/08 07:29:35;;;;;;;3.47;2.40;;;;;;;2.75;78.69;99197.94;5067493;28;20214;-70
2021/12/08 07:32:07;;;;;;;4.27;2.10;;;;;;;2.81;78.39;99198.53;5051773;28;20238;-70
2021/12/08 07:34:35;;;;;;;3.30;2.67;;;;;;;2.82;77.81;99203.72;5064520;28;20249;-71
2021/12/08 07:37:06;;;;;;;5.77;3.13;;;;;;;2.82;78.17;99200.25;5065532;28;20201;-71
2021/12/08 07:39:42;;;;;;;3.30;2.57;;;;;;;2.83;78.47;99201.94;5059117;28;20670;-70
2021/12/08 07:42:17;;;;;;;3.57;2.83;;;;;;;2.87;78.16;99208.69;5056868;28;20280;-70
2021/12/08 07:44:43;;;;;;;5.97;2.60;;;;;;;2.88;77.94;99210.41;5063454;28;20215;-70
2021/12/08 07:47:14;;;;;;;2.93;2.43;;;;;;;2.91;77.98;99215.50;5064979;28;20212;-70
2021/12/08 07:49:44;;;;;;;3.37;2.53;;;;;;;2.90;77.90;99216.44;5051513;28;20209;-70
2021/12/08 07:52:13;;;;;;;3.33;2.50;;;;;;;2.93;78.00;99224.16;5052899;28;20241;-70
2021/12/08 07:54:41;;;;;;;4.17;2.27;;;;;;;2.91;78.41;99220.75;5050815;28;20230;-70
2021/12/08 07:57:11;;;;;;;3.80;1.90;;;;;;;2.93;78.47;99232.03;5051068;28;20670;-70
2021/12/08 07:59:41;;;;;;;4.03;2.67;;;;;;;2.90;78.37;99234.84;5063946;28;20209;-70
2021/12/08 08:02:08;;;;;;;3.07;2.47;;;;;;;2.91;78.57;99240.00;5058825;28;20709;-70
2021/12/08 08:04:39;;;;;;;4.67;2.37;;;;;;;2.93;77.96;99232.91;5055797;28;20216;-70
2021/12/08 08:07:08;;;;;;;3.23;2.83;;;;;;;2.94;77.70;99224.06;5065957;28;20226;-71
2021/12/08 08:09:40;;;;;;;3.20;2.70;;;;;;;2.96;77.74;99216.09;5052262;28;20754;-70
2021/12/08 08:12:11;;;;;;;4.67;2.93;;;;;;;2.96;78.28;99216.09;5050333;28;20314;-71
2021/12/08 08:14:43;;;;;;;5.13;2.80;;;;;;;2.95;78.71;99220.50;5050675;28;20244;-71
2021/12/08 08:17:16;;;;;;;4.43;2.70;;;;;;;2.95;77.91;99232.81;5056835;28;20223;-71
2021/12/08 08:19:46;;;;;;;3.03;2.70;;;;;;;2.96;78.02;99239.78;5057657;28;20236;-70
2021/12/08 08:22:16;;;;;;;4.13;2.87;;;;;;;2.95;78.04;99240.69;5057273;28;20233;-70
2021/12/08 08:24:43;;;;;;;5.17;3.20;;;;;;;2.95;77.95;99238.06;5055919;28;20212;-70
2021/12/08 08:27:14;;;;;;;5.87;2.93;;;;;;;2.95;77.96;99235.44;5058480;28;20671;-71
2021/12/08 08:29:41;;;;;;;2.93;2.63;;;;;;;2.95;78.63;99230.19;5054868;28;20208;-70
2021/12/08 08:32:11;;;;;;;4.67;2.70;;;;;;;2.94;78.59;99233.75;5070283;28;20240;-70
2021/12/08 08:34:43;;;;;;;4.17;3.17;;;;;;;2.93;78.52;99239.94;5064433;28;20261;-70
2021/12/08 08:37:13;;;;;;;4.37;3.23;;;;;;;2.97;78.39;99244.09;5064566;28;20205;-70
2021/12/08 08:39:44;;;;;;;4.33;2.83;;;;;;;3.00;78.40;99259.72;5058771;28;20295;-70
2021/12/08 08:42:16;;;;;;;3.37;2.70;;;;;;;3.00;78.53;99260.56;5068428;28;20259;-70
2021/12/08 08:44:46;;;;;;;5.00;2.97;;;;;;;3.03;78.18;99270.06;5056535;28;20295;-70
2021/12/08 08:47:16;;;;;;;6.17;3.20;;;;;;;3.04;79.03;99248.97;5066492;28;20209;-70
2021/12/08 08:49:44;;;;;;;4.83;2.90;;;;;;;3.06;78.88;99239.16;5050944;28;20316;-71
2021/12/08 08:52:17;;;;;;;5.43;3.20;;;;;;;3.09;78.95;99257.41;5060384;28;20241;-70
2021/12/08 08:54:46;;;;;;;5.23;3.03;;;;;;;3.11;78.91;99263.44;5054053;28;20233;-71
2021/12/08 08:57:17;;;;;;;5.07;3.13;;;;;;;3.14;78.39;99247.50;5062325;28;20413;-71
2021/12/08 08:59:48;;;;;;;4.13;2.90;;;;;;;3.18;78.89;99229.78;5051048;28;20216;-71
2021/12/08 09:02:19;;;;;;;5.50;3.00;;;;;;;3.19;78.99;99239.38;5060762;28;20225;-70
2021/12/08 09:04:50;;;;;;;6.13;3.03;;;;;;;3.21;78.28;99247.16;5059480;28;20212;-70
2021/12/08 09:07:23;;;;;;;6.90;3.57;;;;;;;3.22;78.33;99249.72;5053165;28;20210;-71
2021/12/08 09:09:51;;;;;;;4.40;3.00;;;;;;;3.25;78.18;99241.63;5057730;28;20217;-70
2021/12/08 09:12:22;;;;;;;3.53;2.90;;;;;;;3.27;78.85;99236.28;5052962;28;20237;-70
2021/12/08 09:14:53;;;;;;;4.10;2.87;;;;;;;3.28;78.90;99236.19;5057025;28;20433;-70
2021/12/08 09:17:23;;;;;;;4.60;2.87;;;;;;;3.28;78.11;99244.09;5064459;28;20696;-70
2021/12/08 09:19:55;;;;;;;5.57;3.03;;;;;;;3.32;78.73;99256.16;5066737;28;20216;-70
2021/12/08 09:22:29;;;;;;;5.87;3.30;;;;;;;3.34;78.97;99243.75;5053264;28;20572;-70
2021/12/08 09:24:59;;;;;;;4.50;3.10;;;;;;;3.36;78.81;99241.91;5061792;28;20240;-70
2021/12/08 09:27:29;;;;;;;5.33;3.20;;;;;;;3.38;78.43;99232.13;5059449;28;20220;-70
2021/12/08 09:29:59;;;;;;;4.27;3.40;;;;;;;3.42;78.81;99235.41;5053708;28;20693;-70
2021/12/08 09:32:33;;;;;;;8.47;3.53;;;;;;;3.43;78.67;99245.88;5053597;28;20244;-70
2021/12/08 09:35:05;;;;;;;5.17;3.50;;;;;;;3.48;78.97;99254.34;5065783;28;20255;-70
2021/12/08 09:37:39;;;;;;;4.97;3.30;;;;;;;3.51;79.13;99255.13;5067818;28;20205;-70
2021/12/08 09:40:09;;;;;;;4.23;3.03;;;;;;;3.54;79.01;99233.91;5066099;28;20224;-70
2021/12/08 09:42:40;;;;;;;5.70;3.47;;;;;;;3.56;78.89;99232.03;5054300;28;20233;-71
2021/12/08 09:45:14;;;;;;;3.40;2.60;;;;;;;3.59;78.77;99237.94;5060478;28;20460;-71
2021/12/08 09:47:41;;;;;;;5.53;3.60;;;;;;;3.60;78.77;99238.78;5064236;28;20234;-71
2021/12/08 09:50:12;;;;;;;4.93;2.80;;;;;;;3.62;78.85;99240.41;5059104;28;20204;-70
2021/12/08 09:52:42;;;;;;;7.70;3.30;;;;;;;3.66;78.43;99254.25;5053982;28;20241;-70
2021/12/08 09:55:12;;;;;;;5.40;3.13;;;;;;;3.67;79.00;99255.94;5053298;28;20241;-71
2021/12/08 09:57:39;;;;;;;6.77;3.43;;;;;;;3.69;78.64;99254.06;5052796;28;20215;-71
2021/12/08 10:00:08;;;;;;;4.40;3.13;;;;;;;3.71;78.95;99263.59;5060553;28;20211;-70
2021/12/08 10:02:36;;;;;;;3.87;2.83;;;;;;;3.73;78.38;99258.22;5052801;28;20736;-71
2021/12/08 10:05:05;;;;;;;4.17;3.10;;;;;;;3.76;78.48;99269.41;5058678;28;20209;-71
2021/12/08 10:07:32;;;;;;;5.57;3.03;;;;;;;3.78;78.44;99274.59;5062595;28;20212;-71
2021/12/08 10:10:00;;;;;;;4.67;3.43;;;;;;;3.79;78.47;99271.03;5052754;28;20690;-71
2021/12/08 10:12:27;;;;;;;4.93;3.10;;;;;;;3.81;78.44;99269.16;5059507;28;20239;-71
2021/12/08 10:14:54;;;;;;;5.50;3.37;;;;;;;3.83;78.47;99278.66;5062860;28;20206;-71
2021/12/08 10:17:21;;;;;;;7.40;3.60;;;;;;;3.83;78.86;99299.75;5066376;28;20209;-71
2021/12/08 10:20:07;;;;;;;4.47;3.40;;;;;;;3.87;78.70;99278.50;5065986;28;20492;-71
2021/12/08 10:22:34;;;;;;;6.10;3.20;;;;;;;3.87;78.21;99281.97;5053142;28;20257;-70
2021/12/08 10:25:09;;;;;;;5.50;3.60;;;;;;;3.90;78.10;99288.88;5060016;28;20208;-71
2021/12/08 10:28:04;;;;;;;4.90;3.13;;;;;;;3.91;78.42;99278.25;5059139;28;20220;-70
2021/12/08 10:30:32;;;;;;;4.70;3.23;;;;;;;3.95;77.91;99281.53;5052841;28;20663;-70
2021/12/08 10:33:00;;;;;;;6.73;3.63;;;;;;;3.97;78.33;99269.97;5077386;22;20325;-79
2021/12/08 10:35:47;;;;;;;6.27;2.90;;;;;;;4.02;77.77;99265.28;5038925;28;20265;-78
2021/12/08 10:38:16;;;;;;;4.47;2.90;;;;;;;4.03;78.40;99256.44;5054727;28;20566;-78
2021/12/08 10:41:03;;;;;;;4.20;3.53;;;;;;;4.05;77.62;99261.63;5053268;28;20245;-78
2021/12/08 10:43:30;;;;;;;4.57;2.97;;;;;;;4.06;77.55;99269.44;5014186;28;20563;-77
2021/12/08 10:46:02;;;;;;;3.70;2.73;;;;;;;4.08;77.82;99243.84;5014204;28;20618;-79
2021/12/08 10:48:34;;;;;;;5.20;2.80;;;;;;;4.10;77.79;99246.41;5015696;28;20223;-78
2021/12/08 10:56:40;;;;;;;5.67;3.00;;;;;;;4.21;78.12;99267.69;4986998;28;20728;-77
2021/12/08 10:59:07;;;;;;;5.33;3.10;;;;;;;4.23;77.86;99263.19;5024523;28;20206;-77
2021/12/08 11:01:35;;;;;;;4.33;2.87;;;;;;;4.26;77.81;99275.31;5026684;28;20221;-78
2021/12/08 11:04:05;;;;;;;6.33;2.83;;;;;;;4.29;77.91;99286.53;5031858;28;20213;-77
2021/12/08 11:06:32;;;;;;;3.77;2.50;;;;;;;4.34;77.93;99273.06;5029046;28;20210;-77
2021/12/08 11:08:59;;;;;;;4.53;2.83;;;;;;;4.40;78.16;99270.06;5027563;28;20706;-77
2021/12/08 11:11:29;;;;;;;4.27;2.90;;;;;;;4.44;77.93;99258.41;5029940;28;20321;-75
2021/12/08 11:13:59;;;;;;;5.90;2.87;;;;;;;4.47;77.99;99263.50;5027176;28;20256;-77
2021/12/08 11:16:27;;;;;;;5.43;2.90;;;;;;;4.53;77.79;99263.97;5020120;28;20234;-78
2021/12/08 11:19:03;;;;;;;4.20;2.80;;;;;;;4.60;77.90;99269.72;5028868;28;20209;-79
2021/12/08 11:21:36;;;;;;;4.53;2.83;;;;;;;4.65;77.54;99258.91;5023743;28;20221;-79
2021/12/08 11:24:05;;;;;;;5.03;2.33;;;;;;;4.71;77.59;99255.88;5028389;28;20253;-78
2021/12/08 11:26:37;;;;;;;4.43;2.83;;;;;;;4.74;77.20;99240.72;5029102;28;20798;-78
2021/12/08 11:29:07;;;;;;;6.30;2.63;;;;;;;4.78;77.14;99239.59;5030936;28;20548;-78
2021/12/08 11:31:38;;;;;;;4.90;3.17;;;;;;;4.81;76.79;99234.13;5026203;28;20242;-76
2021/12/08 11:34:10;;;;;;;3.57;2.70;;;;;;;4.84;76.93;99246.25;5028283;28;20695;-76
2021/12/08 11:36:38;;;;;;;3.67;2.73;;;;;;;4.84;76.55;99243.59;5026881;28;20233;-77
2021/12/08 11:39:08;;;;;;;3.00;2.40;;;;;;;4.86;76.36;99239.94;5025897;28;20614;-77
2021/12/08 11:41:37;;;;;;;3.23;2.40;;;;;;;4.88;76.66;99253.03;5024784;28;20222;-77
2021/12/08 11:44:09;;;;;;;4.60;2.80;;;;;;;4.86;76.65;99253.13;5026214;28;20206;-77
2021/12/08 11:46:42;;;;;;;3.50;2.73;;;;;;;4.87;76.62;99257.47;5021422;28;20206;-77
2021/12/08 11:49:10;;;;;;;3.87;2.40;;;;;;;4.87;76.30;99246.91;5025607;28;20210;-77
2021/12/08 11:52:09;;;;;;;2.90;2.40;;;;;;;4.89;76.40;99263.50;5025068;28;20308;-77
2021/12/08 11:54:40;;;;;;;2.87;2.30;;;;;;;4.92;75.97;99269.53;4989868;28;20214;-78
2021/12/08 11:57:12;;;;;;;5.53;2.80;;;;;;;4.94;75.88;99268.50;5019979;28;20226;-77
2021/12/08 11:59:49;;;;;;;2.80;2.13;;;;;;;4.97;75.70;99262.19;5020489;28;20205;-78
2021/12/08 12:02:18;;;;;;;3.77;2.00;;;;;;;4.98;75.52;99261.25;5022537;28;20611;-78
2021/12/08 12:04:45;;;;;;;3.53;1.90;;;;;;;4.97;75.12;99249.00;5023656;28;20207;-77
2021/12/08 12:07:13;;;;;;;4.40;2.20;;;;;;;4.97;75.04;99256.91;5019808;28;20230;-77
2021/12/08 12:09:41;;;;;;;4.00;2.07;;;;;;;4.97;75.15;99257.75;5024465;28;20206;-77
2021/12/08 12:12:08;;;;;;;4.47;2.73;;;;;;;4.97;75.43;99263.03;5015743;28;20233;-78
2021/12/08 12:14:35;;;;;;;4.47;3.07;;;;;;;4.99;75.00;99250.59;5023254;28;20203;-77
2021/12/08 12:17:04;;;;;;;12.70;5.20;;;;;;;5.02;75.37;99257.44;5023154;28;20227;-77
2021/12/08 12:19:36;;;;;;;9.13;4.90;;;;;;;5.01;75.21;99259.25;5021889;28;20213;-77
2021/12/08 12:22:20;;;;;;;4.47;2.93;;;;;;;5.03;75.27;99261.78;5025915;28;20324;-77
2021/12/08 12:25:13;;;;;;;4.03;2.70;;;;;;;5.05;75.02;99265.16;5020951;28;20217;-78